Coos Bay, OR (97420)

6:28 PM PDT on August 27, 2016 (GMT -0700)
Red Dike Road | | Change Station

Elev 39 ft 43.33 °N, 124.23 °W | Updated 9 minutes ago

Overcast
Overcast
60.8 °F
Feels Like 60.8 °F
N
2.7
Wind Variable Wind from West

Today
High -- | Low -- °F
--% Chance of Precip.
Yesterday
High -- | Low -- °F
Precip. -- in
Pressure 30.04 in
Visibility 10.0 miles
Clouds Mostly Cloudy 500 ft
Overcast 1100 ft
Dew Point 56 °F
Humidity 85%
Rainfall 0.00 in
Snow Depth Not available.
6:36 AM 7:59 PM
Waning Crescent, 20% visible
METAR KOTH 280115Z 28006KT 10SM BKN005 OVC011 14/12 A3004 RMK AO1
Pressure 30.04 in
Visibility 10.0 miles
Clouds Mostly Cloudy 500 ft
Overcast 1100 ft
Dew Point 56 °F
Humidity 85%
Rainfall 0.00 in
Snow Depth Not available.
6:36 AM 7:59 PM
Waning Crescent, 20% visible
METAR KOTH 280115Z 28006KT 10SM BKN005 OVC011 14/12 A3004 RMK AO1

10-Day Weather Forecast

Almanac

Astronomy

Aug. 27, 2016 Rise Set
Actual Time
Civil Twilight
Nautical Twilight
Astronomical Twilight
Moon
Length of Visible Light
Length of Day
Tomorrow will be .
, % of the Moon is Illuminated

Today's Extremes

State Highs State Lows

Community

WunderPhotos

Upload Photos

1,935,486 photos uploaded!

WunderBlog® & News

Nearby

Air Quality

  Air Quality AQ Index Pollutant
Not available.

Snow Depth

Station Depth Elevation

Earthquake Activity

City Distance Mag. Time & Date
Minimum magnitude displayed is 2.5.

Coastal Water Temperatures

Place Temperature

Stations

Nearby Weather Stations

Station Location Temp. Windchill Dew Point Humidity Wind Precip. Elev Updated Type
                   

Watches & Warnings

There are currently no watches in effect.